Relevés horaires Beauvechain (Belgique)


Relevés horaires à Beauvechain - Dimanche 28 Juin 2020
Heure UTC1 Température [°C] Vent [km/h] Hum. [%] Pres.4 [hPa] Visi. [Km] Nébu. [octa] Préc.5 [mm] Cond.
2m. Res. Ros. Dir.2 Vit. Moy. Raf.3
23:00 14.3 14.3 7.4 NNO 0.0 -- 0.0 63 1013.5(-0.2/3h) 20 -- -- --
22:00 15.5 15.5 7.3 NNO 0.0 -- 0.0 58 1013.5(0.1/3h) 20 -- -- --
21:00 15.5 15.5 7.7 NNO 0.0 -- 0.0 60 1014(0.7/3h) 20 -- -- --
20:00 16.0 16.0 8.9 NNO 0.0 -- 0.0 63 1013.6(0.2/3h) 20 -- -- --
19:00 18.8 18.8 9.3 NNO 0.0 -- 0.0 54 1013.2(-0.2/3h) 20 -- -- --
18:00 21.3 21.3 8.6 NNO 0.0 -- 0.0 44 1012.8(-0.6/3h) 20 -- trace/12h
--
17:00 20.4 20.4 7.8 NNO 0.0 -- 0.0 44 1013.1(-0.7/3h) 20 -- -- --
16:00 20.8 20.8 7.6 NNO 0.0 -- 0.0 42 1013.2(-0.4/3h) 19 -- -- --
15:00 20.7 20.7 7.1 NNO 0.0 -- 0.0 41 1013.6(-0.5/3h) 20 -- -- --
14:00 21.4 21.4 6.5 NNO 0.0 -- 0.0 38 1013.7(-0.3/3h) 18 -- -- --
13:00 20.7 20.7 7.0 NNO 0.0 -- 0.0 41 1013.7(-0.2/3h) 18 -- -- --
12:00 19.1 19.1 8.7 NNO 0.0 -- 0.0 51 1014.2(0.0/3h) 20 -- trace/6h
NA
11:00 17.8 17.8 9.3 NNO 0.0 -- 0.0 57 1014.2(0.5/3h) 20 -- -- --
10:00 17.6 17.6 10.2 NNO 0.0 -- 0.0 62 1014.2(0.9/3h) 20 -- -- NA
09:00 15.0 15.0 9.2 NNO 0.0 -- 0.0 68 1014.2(1.4/3h) 20 -- -- --
08:00 15.9 15.9 10.7 NNO 0.0 -- 0.0 71 1013.8(1.6/3h) 20 -- -- --
07:00 15.7 15.7 10.7 NNO 0.0 -- 0.0 72 1013.3(1.6/3h) 19 -- -- --
06:00 15.2 15.2 10.5 NNO 0.0 -- 0.0 74 1012.8(1.4/3h) 20 -- -- --
05:00 15.6 15.6 11.1 NNO 0.0 -- 0.0 75 1012.1(1.0/3h) 20 -- -- --
04:00 15.8 15.8 11.6 NNO 0.0 -- 0.0 76 1011.7(1.0/3h) 20 -- -- --
03:00 16.2 16.2 12.6 NNO 0.0 -- 0.0 79 1011.3(0.9/3h) 20 -- -- --
02:00 16.5 16.5 12.9 NNO 0.0 -- 0.0 79 1011(0.5/3h) 20 -- -- --
01:00 17.2 17.2 13.1 NNO 0.0 -- 0.0 77 1010.6(0.4/3h) 20 -- -- --
00:00 17.1 17.1 13.3 NNO 0.0 -- 0.0 78 1010.3(0.3/3h) 20 -- -- --

1 Coordinated Universal Time. Actuellement il est 01:00 locale et 23:00 UTC.

2 Le vent souffle depuis la direction indiquée vers la direction oposée.

3 Les rafales max. sont disponible 40 min après l'heure du relevé.

4 Pour les stations d'altitude (plus de 600m) le géopotentiel du niveau le plus proche de la pression obligatoire est indiqué.

5 Les stations disposant d'un diffuseur peuvent indiquer "trace". Cela signifie que des précipitations ont touchés le sol mais que la quantité est inférieure à 0.1 mm.

Récapitulatif de la journée
Température [°C] Vent [km/h] Ensoleillement4 [h] Precipitations totale5 [mm] Pression [Hpa]
Min1 Max.2 Moy.3 Max. Min Max.
15.2 22.0 0 0.0 0 h 0 min 0 1010.3 1014.2

1 Température minimale relevée entre 18:00 UTC la veille et 18:00 UTC le jour donné.

2 Température maximale relevée entre 06:00 UTC le jour donné et 06:00 UTC le lendemain.

3 Vent moyen de la journée basé sur les relevés horaires.

4 Ensoleillement en heures relevé entre 06:00 UTC la veille et 06:00 UTC le jour donné.

5 Précipitations totales tombées entre 06:00 UTC la jour donné et 06:00 UTC le lendemain.

Graphiques horaires